Time;durP1;ratioP1;P1;durP2;ratioP2;P2;SDS_P1;SDS_P2;PMS_P1;PMS_P2;Temp;Humidity;BMP_temperature;BMP_pressure;BME280_temperature;BME280_humidity;BME280_pressure;Samples;Min_cycle;Max_cycle;Signal;HPM_P1;HPM_P2
2023/10/01 00:00:28;;;;;;;18.02;11.40;;;;;;;12.37;100.00;96917.72;6340808;22;20077;-62
2023/10/01 00:02:57;;;;;;;16.60;11.38;;;;;;;12.36;100.00;96921.34;6340178;22;20005;-62
2023/10/01 00:05:24;;;;;;;17.77;11.63;;;;;;;12.32;100.00;96924.22;6339915;22;20006;-62
2023/10/01 00:07:51;;;;;;;16.35;10.27;;;;;;;12.29;100.00;96919.19;6340240;22;20074;-61
2023/10/01 00:10:18;;;;;;;17.92;11.50;;;;;;;12.27;100.00;96913.19;6340375;22;20027;-61
2023/10/01 00:12:49;;;;;;;17.90;12.02;;;;;;;12.23;100.00;96916.19;6340383;22;20069;-62
2023/10/01 00:15:17;;;;;;;19.90;12.02;;;;;;;12.22;100.00;96917.97;6339464;22;20015;-61
2023/10/01 00:17:44;;;;;;;18.00;10.80;;;;;;;12.18;100.00;96911.28;6340685;22;19995;-62
2023/10/01 00:20:20;;;;;;;17.48;11.63;;;;;;;12.08;100.00;96918.25;6313243;22;20132;-62
2023/10/01 00:22:49;;;;;;;18.92;11.80;;;;;;;12.06;100.00;96914.91;6342386;22;19994;-62
2023/10/01 00:25:16;;;;;;;16.10;11.02;;;;;;;12.07;100.00;96922.69;6342060;22;19995;-62
2023/10/01 00:27:42;;;;;;;18.13;11.00;;;;;;;12.03;100.00;96915.97;6342533;22;20003;-62
2023/10/01 00:30:09;;;;;;;14.98;10.77;;;;;;;11.98;100.00;96913.66;6342149;22;20055;-62
2023/10/01 00:32:39;;;;;;;15.95;11.30;;;;;;;12.01;100.00;96916.06;6342535;22;20001;-61
2023/10/01 00:35:06;;;;;;;16.30;11.18;;;;;;;12.06;100.00;96912.25;6342251;22;20002;-62
2023/10/01 00:37:33;;;;;;;18.00;11.30;;;;;;;12.04;100.00;96905.28;6342200;22;20033;-62
2023/10/01 00:39:59;;;;;;;16.45;11.48;;;;;;;12.03;100.00;96902.78;6342299;22;20098;-62
2023/10/01 00:42:27;;;;;;;19.55;11.65;;;;;;;12.01;100.00;96905.53;6342288;22;20005;-62
2023/10/01 00:44:53;;;;;;;15.80;11.18;;;;;;;12.01;100.00;96900.25;6341636;22;20021;-62
2023/10/01 00:47:22;;;;;;;20.33;11.88;;;;;;;11.98;100.00;96895.19;6341315;22;19995;-62
2023/10/01 00:49:49;;;;;;;18.48;12.50;;;;;;;11.96;100.00;96899.75;6341783;22;19994;-62
2023/10/01 00:52:18;;;;;;;16.30;11.18;;;;;;;11.93;100.00;96905.25;6342089;22;19999;-62
2023/10/01 00:54:44;;;;;;;17.80;11.40;;;;;;;11.89;100.00;96895.91;6342192;22;19995;-62
2023/10/01 00:57:10;;;;;;;17.38;10.98;;;;;;;11.86;100.00;96894.34;6342402;22;20682;-62
2023/10/01 00:59:36;;;;;;;15.43;11.18;;;;;;;11.86;100.00;96891.72;6341641;22;20081;-61
2023/10/01 01:02:06;;;;;;;16.05;11.27;;;;;;;11.84;100.00;96891.00;6341717;22;20006;-62
2023/10/01 01:04:36;;;;;;;19.65;11.77;;;;;;;11.81;100.00;96885.97;6341853;22;20006;-62
2023/10/01 01:07:14;;;;;;;20.95;11.63;;;;;;;11.78;100.00;96880.94;6342240;22;19995;-62
2023/10/01 01:09:43;;;;;;;16.25;11.43;;;;;;;11.72;100.00;96876.97;6341603;22;19995;-61
2023/10/01 01:12:09;;;;;;;18.00;10.93;;;;;;;11.72;100.00;96871.69;6341689;22;20007;-62
2023/10/01 01:14:35;;;;;;;15.45;11.02;;;;;;;11.71;100.00;96880.56;6341382;22;20487;-62
2023/10/01 01:17:02;;;;;;;17.25;11.65;;;;;;;11.70;100.00;96867.47;6342175;22;20029;-61
2023/10/01 01:19:29;;;;;;;13.55;11.25;;;;;;;11.68;100.00;96862.34;6342048;22;20504;-62
2023/10/01 01:21:55;;;;;;;17.80;11.70;;;;;;;11.68;100.00;96862.34;6314749;22;20006;-62
2023/10/01 01:24:20;;;;;;;14.88;11.00;;;;;;;11.69;100.00;96858.75;6341447;22;20005;-61
2023/10/01 01:26:51;;;;;;;15.60;10.75;;;;;;;11.67;100.00;96858.03;6342048;22;20005;-62
2023/10/01 01:29:29;;;;;;;24.40;11.63;;;;;;;11.68;100.00;96864.13;6341751;22;20499;-62
2023/10/01 01:32:07;;;;;;;17.58;11.90;;;;;;;11.67;100.00;96855.38;6341149;22;19995;-61
2023/10/01 01:34:35;;;;;;;15.82;10.50;;;;;;;11.66;100.00;96861.63;6341846;22;20028;-62
2023/10/01 01:37:07;;;;;;;17.45;11.75;;;;;;;11.63;100.00;96861.00;6341467;22;20384;-62
2023/10/01 01:39:54;;;;;;;17.60;11.77;;;;;;;11.56;100.00;96858.00;6341840;22;20082;-62
2023/10/01 01:42:21;;;;;;;14.82;11.20;;;;;;;11.51;100.00;96857.53;6341676;22;20005;-62
2023/10/01 01:45:14;;;;;;;16.67;11.55;;;;;;;11.52;100.00;96861.84;6341815;22;19995;-62
2023/10/01 01:47:35;;;;;;;14.55;11.52;;;;;;;11.51;100.00;96860.16;6341052;22;20003;-62
2023/10/01 01:50:17;;;;;;;15.73;10.77;;;;;;;11.49;100.00;96862.09;6341733;22;20468;-62
2023/10/01 01:52:56;;;;;;;17.35;11.88;;;;;;;11.46;100.00;96858.72;6341190;22;19999;-62
2023/10/01 01:55:29;;;;;;;20.15;12.30;;;;;;;11.37;100.00;96856.78;6341320;22;19998;-62
2023/10/01 01:58:08;;;;;;;15.30;11.35;;;;;;;11.37;100.00;96854.16;6341836;22;20142;-62
2023/10/01 02:00:39;;;;;;;15.98;12.07;;;;;;;11.36;100.00;96854.28;6341991;22;20431;-62
2023/10/01 02:03:26;;;;;;;17.02;11.65;;;;;;;11.37;100.00;96848.06;6341785;22;20374;-62
2023/10/01 02:05:52;;;;;;;17.45;11.82;;;;;;;11.35;100.00;96847.34;6340466;22;19998;-62
2023/10/01 02:08:23;;;;;;;18.98;12.93;;;;;;;11.34;100.00;96850.94;6313916;22;20005;-61
2023/10/01 02:10:54;;;;;;;18.50;13.05;;;;;;;11.31;100.00;96847.59;6341581;22;19998;-62
2023/10/01 02:13:21;;;;;;;19.75;13.50;;;;;;;11.28;100.00;96837.28;6340804;22;20023;-62
2023/10/01 02:15:47;;;;;;;16.67;12.32;;;;;;;11.23;100.00;96839.41;6341383;22;20010;-62
2023/10/01 02:18:17;;;;;;;16.67;12.13;;;;;;;11.18;100.00;96841.56;6341147;22;20316;-62
2023/10/01 02:20:50;;;;;;;16.77;12.80;;;;;;;11.14;100.00;96846.22;6341426;22;20493;-62
2023/10/01 02:23:17;;;;;;;23.80;12.55;;;;;;;11.16;100.00;96844.34;6341527;22;20003;-62
2023/10/01 02:25:46;;;;;;;18.40;12.85;;;;;;;11.13;100.00;96843.72;6341519;22;20002;-62
2023/10/01 02:28:15;;;;;;;19.52;13.32;;;;;;;11.12;100.00;96850.78;6340974;22;20002;-62
2023/10/01 02:30:41;;;;;;;17.48;13.23;;;;;;;11.12;100.00;96850.78;6341375;22;19998;-62
2023/10/01 02:33:17;;;;;;;19.10;14.45;;;;;;;11.06;100.00;96843.34;6341129;22;19999;-62
2023/10/01 02:35:46;;;;;;;19.52;13.48;;;;;;;11.02;100.00;96847.16;6341118;22;20102;-61
2023/10/01 02:41:08;;;;;;;20.23;14.43;;;;;;;10.99;100.00;96842.13;6341072;22;20063;-62
2023/10/01 02:43:34;;;;;;;19.63;13.98;;;;;;;11.01;100.00;96850.75;6341523;22;20292;-62
2023/10/01 02:46:11;;;;;;;18.90;13.65;;;;;;;10.97;100.00;96850.13;6341825;22;19998;-62
2023/10/01 02:48:40;;;;;;;19.60;14.05;;;;;;;10.93;100.00;96839.94;6341688;22;20079;-62
2023/10/01 02:51:14;;;;;;;21.88;14.80;;;;;;;10.96;100.00;96837.09;6341510;22;20121;-61
2023/10/01 02:56:25;;;;;;;21.63;12.63;;;;;;;10.93;100.00;96848.69;6341347;22;20009;-62
2023/10/01 02:58:51;;;;;;;20.80;13.25;;;;;;;10.95;100.00;96852.06;6340413;22;19994;-62
2023/10/01 03:01:17;;;;;;;19.17;13.95;;;;;;;10.95;100.00;96845.97;6340907;22;20060;-62
2023/10/01 03:03:42;;;;;;;19.25;13.73;;;;;;;10.92;100.00;96841.75;6340759;22;20090;-61
2023/10/01 03:06:10;;;;;;;20.40;13.55;;;;;;;10.88;100.00;96848.22;6341389;22;20003;-61
2023/10/01 03:11:22;;;;;;;19.75;12.68;;;;;;;10.81;100.00;96834.66;6341217;22;20419;-62
2023/10/01 03:13:48;;;;;;;19.65;14.18;;;;;;;10.73;100.00;96835.22;6340435;22;20071;-62
2023/10/01 03:19:12;;;;;;;25.02;15.10;;;;;;;10.73;100.00;96840.50;6340738;22;20059;-62
2023/10/01 03:24:25;;;;;;;21.02;13.70;;;;;;;10.73;100.00;96842.31;6317532;22;20094;-62
2023/10/01 03:26:50;;;;;;;19.98;13.48;;;;;;;10.71;100.00;96839.78;6341346;22;20009;-62
2023/10/01 03:29:19;;;;;;;20.50;13.88;;;;;;;10.71;100.00;96842.41;6340679;22;20490;-62
2023/10/01 03:31:46;;;;;;;18.48;13.30;;;;;;;10.67;100.00;96848.00;6340987;22;20003;-61
2023/10/01 03:34:28;;;;;;;24.02;14.07;;;;;;;10.64;100.00;96842.97;6340753;22;20079;-62
2023/10/01 03:37:00;;;;;;;22.30;13.85;;;;;;;10.63;100.00;96842.16;6341010;22;20002;-61
2023/10/01 03:39:26;;;;;;;20.27;14.23;;;;;;;10.63;100.00;96836.03;6340290;22;20306;-62
2023/10/01 03:42:17;;;;;;;23.35;14.98;;;;;;;10.57;100.00;96837.31;6340939;22;19995;-61
2023/10/01 03:47:50;;;;;;;21.17;14.15;;;;;;;10.46;100.00;96844.22;6244140;23;20000;-64
2023/10/01 03:50:20;;;;;;;20.85;14.90;;;;;;;10.47;100.00;96845.06;6244801;23;20004;-63
2023/10/01 03:52:52;;;;;;;20.85;15.13;;;;;;;10.46;100.00;96846.00;6295560;22;19999;-64
2023/10/01 03:55:30;;;;;;;18.17;13.45;;;;;;;10.46;100.00;96846.00;6340995;22;20020;-63
2023/10/01 04:00:41;;;;;;;21.70;14.82;;;;;;;10.47;100.00;96842.41;6342530;22;20003;-63
2023/10/01 04:03:16;;;;;;;17.80;13.68;;;;;;;10.48;100.00;96845.91;6342561;22;20021;-63
2023/10/01 04:05:46;;;;;;;20.23;14.23;;;;;;;10.41;100.00;96841.09;6342655;22;20467;-63
2023/10/01 04:08:12;;;;;;;18.50;14.40;;;;;;;10.36;100.00;96842.34;6342174;22;20022;-64
2023/10/01 04:10:39;;;;;;;22.67;15.15;;;;;;;10.30;100.00;96847.13;6342143;22;20145;-64
2023/10/01 04:13:20;;;;;;;21.85;15.13;;;;;;;10.29;100.00;96848.06;6342394;22;20049;-63
2023/10/01 04:15:55;;;;;;;23.13;15.02;;;;;;;10.28;100.00;96843.75;6318295;22;20003;-63
2023/10/01 04:18:23;;;;;;;22.55;14.98;;;;;;;10.26;100.00;96847.44;6342811;22;19998;-63
2023/10/01 04:23:31;;;;;;;19.58;14.35;;;;;;;10.20;100.00;96856.63;6341656;22;20003;-63
2023/10/01 04:26:06;;;;;;;22.67;14.98;;;;;;;10.19;100.00;96849.69;6342268;22;20051;-63
2023/10/01 04:28:43;;;;;;;24.15;16.25;;;;;;;10.18;100.00;96853.25;6342495;22;20001;-64
2023/10/01 04:31:09;;;;;;;20.55;15.27;;;;;;;10.17;100.00;96852.44;6342278;22;20350;-64
2023/10/01 04:33:42;;;;;;;17.70;13.20;;;;;;;10.17;100.00;96851.59;6342576;22;20023;-64
2023/10/01 04:36:11;;;;;;;23.20;14.63;;;;;;;10.17;100.00;96856.84;6342511;22;20423;-63
2023/10/01 04:38:38;;;;;;;21.15;14.80;;;;;;;10.20;100.00;96858.44;6342521;22;20001;-64
2023/10/01 04:41:04;;;;;;;23.83;15.23;;;;;;;10.15;100.00;96856.94;6341942;22;20026;-64
2023/10/01 04:43:35;;;;;;;21.63;14.27;;;;;;;10.11;100.00;96852.84;6342148;22;20003;-64
2023/10/01 04:46:08;;;;;;;22.63;15.13;;;;;;;10.11;100.00;96854.66;6341957;22;20003;-64
2023/10/01 04:48:36;;;;;;;22.70;15.20;;;;;;;10.12;100.00;96853.72;6342001;22;20005;-63
2023/10/01 04:51:03;;;;;;;20.42;13.85;;;;;;;10.06;100.00;96849.72;6342207;22;19991;-64
2023/10/01 04:53:28;;;;;;;21.58;13.98;;;;;;;10.02;100.00;96850.91;6342165;22;20010;-64
2023/10/01 04:56:00;;;;;;;19.23;14.85;;;;;;;10.06;100.00;96846.25;6314401;22;19995;-64
2023/10/01 04:58:32;;;;;;;18.23;13.93;;;;;;;10.07;100.00;96840.06;6342352;22;20002;-64
2023/10/01 05:00:58;;;;;;;23.45;14.63;;;;;;;10.06;100.00;96844.47;6341944;22;20316;-63
2023/10/01 05:03:39;;;;;;;25.25;14.48;;;;;;;10.06;100.00;96847.09;6342031;22;19998;-64
2023/10/01 05:06:18;;;;;;;19.23;13.82;;;;;;;10.08;100.00;96852.25;6341518;22;20330;-63
2023/10/01 05:08:44;;;;;;;19.30;14.15;;;;;;;10.06;100.00;96851.50;6341521;22;20327;-64
2023/10/01 05:11:11;;;;;;;21.63;14.43;;;;;;;10.01;100.00;96847.41;6341829;22;20002;-64
2023/10/01 05:13:41;;;;;;;23.92;14.48;;;;;;;10.01;100.00;96844.78;6341628;22;20068;-63
2023/10/01 05:16:13;;;;;;;24.30;14.95;;;;;;;10.00;100.00;96848.38;6341939;22;20001;-64
2023/10/01 05:18:48;;;;;;;22.33;14.05;;;;;;;10.01;100.00;96857.13;6341842;22;20002;-64
2023/10/01 05:21:18;;;;;;;24.25;14.45;;;;;;;10.01;100.00;96851.84;6342198;22;20019;-63
2023/10/01 05:23:45;;;;;;;20.38;14.82;;;;;;;9.98;100.00;96845.00;6341860;22;20006;-63
2023/10/01 05:26:11;;;;;;;19.60;14.65;;;;;;;9.92;100.00;96842.81;6341934;22;19999;-63
2023/10/01 05:28:41;;;;;;;22.50;14.50;;;;;;;9.91;100.00;96853.44;6341803;22;20457;-64
2023/10/01 05:31:24;;;;;;;24.27;14.75;;;;;;;9.87;100.00;96855.47;6341676;22;20070;-64
2023/10/01 05:33:52;;;;;;;24.35;14.32;;;;;;;9.86;100.00;96859.88;6340831;22;20041;-64
2023/10/01 05:36:18;;;;;;;21.33;14.15;;;;;;;9.87;100.00;96855.47;6340985;22;20022;-63
2023/10/01 05:38:44;;;;;;;22.00;14.77;;;;;;;9.86;100.00;96864.31;6340818;22;19997;-63
2023/10/01 05:41:13;;;;;;;26.02;14.27;;;;;;;9.85;100.00;96862.63;6341223;22;20082;-64
2023/10/01 05:43:43;;;;;;;19.30;13.75;;;;;;;9.88;100.00;96860.59;6341694;22;20056;-63
2023/10/01 05:46:12;;;;;;;20.55;14.10;;;;;;;9.90;100.00;96863.13;6341631;22;19999;-63
2023/10/01 05:48:39;;;;;;;21.10;13.32;;;;;;;9.87;100.00;96864.19;6341331;22;20002;-63
2023/10/01 05:51:12;;;;;;;19.63;13.75;;;;;;;9.84;100.00;96863.59;6341719;22;20428;-64
2023/10/01 05:53:43;;;;;;;16.20;13.15;;;;;;;9.81;100.00;96863.78;6341090;22;20003;-63
2023/10/01 05:56:11;;;;;;;19.75;13.43;;;;;;;9.81;100.00;96871.66;6340977;22;20006;-65
2023/10/01 05:58:38;;;;;;;20.33;13.95;;;;;;;9.83;100.00;96873.25;6341133;22;19995;-64
2023/10/01 06:01:14;;;;;;;21.50;14.98;;;;;;;9.83;100.00;96870.63;6341388;22;20006;-64
2023/10/01 06:03:51;;;;;;;;;;;;;;;9.86;100.00;96878.28;6341502;22;20003;-61
2023/10/01 06:06:26;;;;;;;23.75;14.23;;;;;;;9.91;100.00;96872.72;6341424;22;19902;-64
2023/10/01 06:09:00;;;;;;;18.00;14.13;;;;;;;9.95;100.00;96881.22;6339426;22;20017;-64
2023/10/01 06:11:41;;;;;;;17.67;13.93;;;;;;;9.87;100.00;96877.34;6341361;22;20009;-63
2023/10/01 06:17:01;;;;;;;18.70;14.20;;;;;;;9.93;100.00;96873.44;6340571;22;20010;-64
2023/10/01 06:19:28;;;;;;;18.55;13.57;;;;;;;9.95;100.00;96879.44;6339846;22;20071;-63
2023/10/01 06:22:12;;;;;;;22.02;13.93;;;;;;;9.97;100.00;96877.53;6340363;22;20105;-64
2023/10/01 06:24:43;;;;;;;21.27;14.23;;;;;;;9.95;100.00;96879.44;6340752;22;20007;-63
2023/10/01 06:27:09;;;;;;;18.33;13.55;;;;;;;9.95;100.00;96879.44;6339991;22;20053;-64
2023/10/01 06:29:49;;;;;;;20.00;13.73;;;;;;;9.94;100.00;96872.50;6340038;22;20040;-64
2023/10/01 06:32:16;;;;;;;22.33;13.43;;;;;;;9.95;100.00;96865.44;6339872;22;20060;-64
2023/10/01 06:34:45;;;;;;;17.30;13.73;;;;;;;9.99;100.00;96883.53;6340228;22;20002;-63
2023/10/01 06:37:12;;;;;;;20.23;15.75;;;;;;;10.02;100.00;96875.41;6340599;22;19998;-64
2023/10/01 06:39:40;;;;;;;20.17;15.10;;;;;;;10.04;100.00;96870.88;6340687;22;20090;-64
2023/10/01 06:42:18;;;;;;;20.08;15.00;;;;;;;10.05;100.00;96869.09;6340448;22;20579;-63
2023/10/01 06:44:52;;;;;;;17.98;13.35;;;;;;;10.07;100.00;96866.38;6340894;22;19995;-64
2023/10/01 06:47:22;;;;;;;21.08;13.93;;;;;;;10.09;100.00;96864.47;6340915;22;20003;-64
2023/10/01 06:50:12;;;;;;;18.70;13.65;;;;;;;10.11;100.00;96859.94;6340316;22;19998;-64
2023/10/01 06:52:41;;;;;;;20.25;13.60;;;;;;;10.18;100.00;96861.16;6340278;22;19999;-64
2023/10/01 06:55:25;;;;;;;18.33;14.23;;;;;;;10.21;100.00;96857.47;6313349;22;20025;-64
2023/10/01 06:57:51;;;;;;;20.85;14.15;;;;;;;10.25;100.00;96856.28;6340453;22;20394;-64
2023/10/01 07:00:21;;;;;;;21.27;14.07;;;;;;;10.28;100.00;96858.69;6339630;22;20007;-64
2023/10/01 07:02:49;;;;;;;19.70;13.27;;;;;;;10.29;100.00;96855.97;6341111;22;20448;-64
2023/10/01 07:05:20;;;;;;;18.73;13.77;;;;;;;10.32;100.00;96849.63;6312290;22;20002;-63
2023/10/01 07:07:48;;;;;;;20.90;14.23;;;;;;;10.37;100.00;96854.56;6340606;22;20002;-64
2023/10/01 07:10:14;;;;;;;17.88;13.88;;;;;;;10.41;100.00;96858.69;6339324;22;19999;-63
2023/10/01 07:12:39;;;;;;;19.83;15.40;;;;;;;10.43;100.00;96862.88;6340242;22;20033;-64
2023/10/01 07:15:06;;;;;;;23.10;14.88;;;;;;;10.48;100.00;96867.78;6306253;22;20573;-64
2023/10/01 07:17:33;;;;;;;22.67;14.38;;;;;;;10.50;100.00;96865.91;6308984;22;19995;-63
2023/10/01 07:19:59;;;;;;;20.25;14.35;;;;;;;10.54;100.00;96870.00;6308385;22;20003;-63
2023/10/01 07:22:31;;;;;;;19.77;14.18;;;;;;;10.58;100.00;96866.19;6308515;22;20007;-64
2023/10/01 07:25:01;;;;;;;18.50;13.85;;;;;;;10.66;100.00;96865.63;6308307;22;20082;-63
2023/10/01 07:27:29;;;;;;;21.10;13.40;;;;;;;10.84;100.00;96873.94;6309109;22;19999;-63
2023/10/01 07:29:56;;;;;;;19.45;14.25;;;;;;;11.08;100.00;96873.03;6307964;22;19995;-63
2023/10/01 07:32:24;;;;;;;20.45;13.40;;;;;;;11.32;100.00;96880.03;6308593;22;20010;-63
2023/10/01 07:34:58;;;;;;;18.65;13.25;;;;;;;11.53;100.00;96877.56;6309477;22;20044;-63
2023/10/01 07:37:25;;;;;;;20.38;13.95;;;;;;;11.74;100.00;96885.59;6309107;22;20082;-63
2023/10/01 07:39:55;;;;;;;21.75;13.95;;;;;;;11.95;100.00;96890.16;6308278;22;20003;-63
2023/10/01 07:42:25;;;;;;;19.92;13.68;;;;;;;12.13;100.00;96894.97;6308503;22;20045;-63
2023/10/01 07:44:52;;;;;;;19.13;13.98;;;;;;;12.26;100.00;96898.28;6308591;22;19999;-63
2023/10/01 07:47:32;;;;;;;17.48;12.85;;;;;;;12.41;100.00;96908.59;6308457;22;20003;-63
2023/10/01 07:50:02;;;;;;;17.42;13.57;;;;;;;12.51;100.00;96908.69;6307005;22;19999;-63
2023/10/01 07:52:28;;;;;;;16.48;13.23;;;;;;;12.58;100.00;96913.34;6308730;22;20009;-63
2023/10/01 07:54:55;;;;;;;17.30;12.82;;;;;;;12.71;100.00;96909.69;6309318;22;20003;-63
2023/10/01 07:57:31;;;;;;;17.55;12.43;;;;;;;12.86;100.00;96923.47;6308945;22;19999;-63
2023/10/01 08:00:00;;;;;;;19.50;12.63;;;;;;;12.97;100.00;96926.06;6308692;22;20031;-63
2023/10/01 08:02:28;;;;;;;17.30;12.70;;;;;;;13.08;100.00;96940.22;6309372;22;20026;-63
2023/10/01 08:04:58;;;;;;;17.42;11.95;;;;;;;13.18;100.00;96944.63;6309232;22;20127;-63
2023/10/01 08:07:30;;;;;;;20.63;13.60;;;;;;;13.30;100.00;96949.84;6309393;22;19995;-64
2023/10/01 08:09:59;;;;;;;19.25;12.95;;;;;;;13.46;100.00;96955.56;6309130;22;20077;-63
2023/10/01 08:12:29;;;;;;;21.98;12.95;;;;;;;13.57;100.00;96953.78;6309090;22;20007;-63
2023/10/01 08:15:29;;;;;;;18.95;12.02;;;;;;;13.68;100.00;96964.31;6334463;22;20073;-63
2023/10/01 08:18:26;;;;;;;18.58;12.27;;;;;;;13.79;100.00;96967.84;6340587;22;20057;-64
2023/10/01 08:20:58;;;;;;;13.13;11.10;;;;;;;13.92;100.00;96963.19;6339412;22;20382;-63
2023/10/01 08:23:28;;;;;;;16.98;12.25;;;;;;;14.00;100.00;96970.47;6339975;22;19995;-63
2023/10/01 08:25:55;;;;;;;17.05;11.55;;;;;;;14.11;100.00;96977.50;6340291;22;20001;-63
2023/10/01 08:30:49;;;;;;;18.77;12.80;;;;;;;14.25;100.00;96976.28;6340665;22;19991;-63
2023/10/01 08:33:26;;;;;;;15.75;11.60;;;;;;;14.36;100.00;96986.78;6340382;22;19999;-62
2023/10/01 08:36:01;;;;;;;17.27;12.32;;;;;;;14.45;100.00;96979.84;6340349;22;20007;-63
2023/10/01 08:38:34;;;;;;;20.25;12.15;;;;;;;14.57;100.00;96993.81;6340497;22;20003;-63
2023/10/01 08:41:03;;;;;;;15.30;12.05;;;;;;;14.67;100.00;96993.84;6340095;22;20002;-63
2023/10/01 08:43:35;;;;;;;17.00;11.80;;;;;;;14.72;100.00;96994.34;6341544;22;20007;-63
2023/10/01 08:46:17;;;;;;;14.18;11.98;;;;;;;14.73;100.00;96994.19;6341477;22;20006;-63
2023/10/01 08:48:43;;;;;;;18.52;11.40;;;;;;;14.83;100.00;96999.50;6341805;22;20005;-63
2023/10/01 08:51:11;;;;;;;15.55;11.38;;;;;;;14.89;100.00;96998.94;6341857;22;20082;-63
2023/10/01 08:53:41;;;;;;;16.90;12.27;;;;;;;14.96;100.00;96993.13;6341567;22;19998;-63
2023/10/01 08:56:32;;;;;;;17.00;12.30;;;;;;;15.07;100.00;96985.03;6341873;22;19995;-63
2023/10/01 08:58:59;;;;;;;16.55;12.15;;;;;;;15.21;100.00;96998.88;6341548;22;20444;-63
2023/10/01 09:01:27;;;;;;;15.75;11.23;;;;;;;15.24;100.00;96985.31;6342526;22;19995;-63
2023/10/01 09:03:55;;;;;;;14.65;11.27;;;;;;;15.32;100.00;96982.78;6342080;22;20028;-62
2023/10/01 09:06:28;;;;;;;13.02;10.35;;;;;;;15.42;100.00;96965.06;6341682;22;19999;-63
2023/10/01 09:08:55;;;;;;;13.70;10.38;;;;;;;15.50;100.00;96960.84;6341846;22;19998;-63
2023/10/01 09:11:58;;;;;;;17.58;10.60;;;;;;;15.72;100.00;96976.47;6341784;22;19991;-63
2023/10/01 09:14:35;;;;;;;13.57;10.25;;;;;;;15.94;100.00;96976.31;6341610;22;20105;-63
2023/10/01 09:17:24;;;;;;;15.52;10.95;;;;;;;16.11;100.00;96969.41;6340984;22;20009;-63
2023/10/01 09:19:50;;;;;;;14.70;10.73;;;;;;;16.24;100.00;96977.88;6340356;22;20435;-63
2023/10/01 09:22:16;;;;;;;17.17;10.60;;;;;;;16.39;100.00;96983.56;6339172;22;20022;-63
2023/10/01 09:24:43;;;;;;;13.73;11.30;;;;;;;16.52;100.00;96977.06;6341261;22;20420;-63
2023/10/01 09:27:21;;;;;;;15.48;10.40;;;;;;;16.63;100.00;96962.72;6341773;22;20003;-63
2023/10/01 09:29:57;;;;;;;15.25;10.90;;;;;;;16.74;100.00;96959.88;6341215;22;19997;-63
2023/10/01 09:32:49;;;;;;;17.77;11.35;;;;;;;16.73;100.00;96956.38;6340954;22;19999;-63
2023/10/01 09:35:30;;;;;;;13.65;10.52;;;;;;;16.84;100.00;96936.69;6340777;22;19999;-63
2023/10/01 09:38:12;;;;;;;15.75;10.75;;;;;;;16.99;100.00;96934.38;6340370;22;20351;-63
2023/10/01 09:40:41;;;;;;;13.13;10.60;;;;;;;17.04;100.00;96925.94;6340610;22;20116;-63
2023/10/01 09:43:18;;;;;;;14.30;10.48;;;;;;;17.11;100.00;96926.16;6341440;22;19998;-63
2023/10/01 09:45:47;;;;;;;15.90;10.15;;;;;;;17.13;100.00;96925.03;6340196;22;19995;-63
2023/10/01 09:48:29;;;;;;;13.13;10.35;;;;;;;17.08;100.00;96916.66;6340931;22;19994;-63
2023/10/01 09:51:08;;;;;;;14.63;9.90;;;;;;;17.19;100.00;96923.56;6340906;22;19999;-63
2023/10/01 09:54:01;;;;;;;14.27;9.82;;;;;;;17.24;100.00;96920.47;6340161;22;19999;-63
2023/10/01 09:56:46;;;;;;;12.68;9.90;;;;;;;17.40;100.00;96922.41;6341017;22;19990;-63
2023/10/01 09:59:12;;;;;;;14.52;10.02;;;;;;;17.52;100.00;96905.19;6340877;22;19999;-63
2023/10/01 10:01:40;;;;;;;13.07;9.70;;;;;;;17.61;100.00;96901.59;6340948;22;20340;-63
2023/10/01 10:04:08;;;;;;;15.52;10.38;;;;;;;17.67;100.00;96900.13;6341135;22;20002;-63
2023/10/01 10:06:34;;;;;;;14.52;10.57;;;;;;;17.76;100.00;96914.34;6341016;22;19998;-63
2023/10/01 10:09:03;;;;;;;13.38;10.15;;;;;;;17.86;100.00;96904.41;6341251;22;20051;-63
2023/10/01 10:11:40;;;;;;;15.55;11.27;;;;;;;17.95;100.00;96904.47;6341020;22;20004;-63
2023/10/01 10:14:27;;;;;;;14.93;10.35;;;;;;;17.99;100.00;96900.47;6340673;22;20440;-63
2023/10/01 10:17:00;;;;;;;15.88;10.88;;;;;;;18.09;100.00;96892.41;6339887;22;20010;-63
2023/10/01 10:19:30;;;;;;;14.98;10.10;;;;;;;18.17;100.00;96911.06;6312633;22;20006;-64
2023/10/01 10:24:30;;;;;;;17.20;11.35;;;;;;;18.20;100.00;96892.09;6340270;22;20010;-63
2023/10/01 10:26:57;;;;;;;14.02;10.43;;;;;;;18.20;100.00;96891.28;6340569;22;20709;-62
2023/10/01 10:29:23;;;;;;;12.95;9.75;;;;;;;18.24;100.00;96892.63;6313861;22;19998;-63
2023/10/01 10:32:10;;;;;;;12.50;10.02;;;;;;;18.30;100.00;96883.97;6341131;22;19998;-64
2023/10/01 10:34:36;;;;;;;11.02;9.77;;;;;;;18.30;100.00;96882.16;6339722;22;20003;-64
2023/10/01 10:37:06;;;;;;;13.95;11.07;;;;;;;18.30;100.00;96882.16;6339916;22;20530;-63
2023/10/01 10:39:48;;;;;;;14.50;10.40;;;;;;;18.44;100.00;96901.16;6312974;22;20006;-63
2023/10/01 10:42:30;;;;;;;16.45;11.07;;;;;;;18.55;100.00;96910.69;6339977;22;20003;-63
2023/10/01 10:45:19;;;;;;;14.95;10.48;;;;;;;18.70;100.00;96866.41;6339770;22;20021;-63
2023/10/01 10:48:03;;;;;;;12.50;10.23;;;;;;;18.74;100.00;96886.41;6339593;22;20086;-63
2023/10/01 10:50:56;;;;;;;15.13;9.65;;;;;;;18.88;100.00;96882.25;6339217;22;20455;-63
2023/10/01 10:53:22;;;;;;;11.77;9.75;;;;;;;19.02;100.00;96874.63;6340394;22;20055;-63
2023/10/01 10:56:04;;;;;;;14.23;10.18;;;;;;;19.22;100.00;96872.44;6339139;22;20006;-63
2023/10/01 10:58:39;;;;;;;14.60;10.07;;;;;;;19.29;100.00;96865.47;6339501;22;19998;-63
2023/10/01 11:01:22;;;;;;;12.50;10.18;;;;;;;19.42;100.00;96886.31;6339826;22;20500;-63
2023/10/01 11:03:49;;;;;;;15.48;10.15;;;;;;;19.59;100.00;96875.59;6340207;22;20006;-63
2023/10/01 11:06:23;;;;;;;20.88;13.02;;;;;;;19.61;100.00;96874.41;6339664;22;20109;-63
2023/10/01 11:08:50;;;;;;;15.95;10.25;;;;;;;19.63;100.00;96866.25;6340406;22;19999;-63
2023/10/01 11:11:29;;;;;;;16.35;10.52;;;;;;;19.72;100.00;96880.41;6340508;22;19995;-63
2023/10/01 11:14:00;;;;;;;11.35;9.38;;;;;;;19.85;100.00;96875.34;6338769;22;20015;-64
2023/10/01 11:16:34;;;;;;;17.45;10.25;;;;;;;19.92;100.00;96858.69;6339285;22;19995;-63
2023/10/01 11:19:12;;;;;;;12.90;9.73;;;;;;;20.07;100.00;96843.56;6340138;22;20009;-63
2023/10/01 11:21:55;;;;;;;15.38;10.02;;;;;;;20.14;100.00;96820.50;6339368;22;20002;-63
2023/10/01 11:24:24;;;;;;;13.27;9.95;;;;;;;20.16;100.00;96815.81;6340261;22;20362;-63
2023/10/01 11:27:20;;;;;;;16.23;9.65;;;;;;;20.27;100.00;96825.28;6339627;22;20013;-63
2023/10/01 11:29:58;;;;;;;13.48;10.05;;;;;;;20.32;100.00;96820.22;6339886;22;19998;-63
2023/10/01 11:33:01;;;;;;;13.55;9.85;;;;;;;20.37;100.00;96821.53;6339826;22;20011;-63
2023/10/01 11:35:31;;;;;;;14.98;10.20;;;;;;;20.45;100.00;96810.81;6339335;22;20028;-63
2023/10/01 11:38:07;;;;;;;12.45;9.38;;;;;;;20.46;100.00;96815.13;6310151;22;20005;-63
2023/10/01 11:43:27;;;;;;;14.95;10.25;;;;;;;20.47;100.00;96798.06;6339001;22;20009;-71
2023/10/01 11:46:18;;;;;;;18.23;10.60;;;;;;;20.57;100.00;96795.16;6313323;22;20867;-71
2023/10/01 11:49:02;;;;;;;13.20;9.98;;;;;;;20.60;100.00;96786.78;6337546;22;20265;-72
2023/10/01 11:54:19;;;;;;;13.25;9.45;;;;;;;20.68;100.00;96783.22;6336646;22;20038;-70
2023/10/01 11:56:47;;;;;;;15.68;10.07;;;;;;;20.82;100.00;96779.78;6338425;22;20015;-72
2023/10/01 11:59:19;;;;;;;12.18;9.68;;;;;;;20.78;100.00;96766.88;6311353;22;19999;-71
2023/10/01 12:02:20;;;;;;;13.57;10.00;;;;;;;20.86;100.00;96766.88;6338670;22;19994;-72
2023/10/01 12:04:49;;;;;;;14.63;10.05;;;;;;;20.94;100.00;96769.47;6336926;22;20070;-73
2023/10/01 12:07:18;;;;;;;14.30;9.88;;;;;;;20.92;100.00;96763.47;6338162;22;20442;-75
2023/10/01 12:09:48;;;;;;;14.00;10.25;;;;;;;21.00;100.00;96774.13;6337958;22;20082;-74